sensor_id;sensor_type;location;lat;lon;timestamp;pressure;altitude;pressure_sealevel;temperature;humidity
70833;BME280;71099;59.528;17.886;2024-02-21T00:01:47;100591.25;;;0.89;90.02
70833;BME280;71099;59.528;17.886;2024-02-21T00:04:12;100581.72;;;0.92;89.54
70833;BME280;71099;59.528;17.886;2024-02-21T00:06:38;100573.16;;;0.95;90.05
70833;BME280;71099;59.528;17.886;2024-02-21T00:09:03;100582.88;;;1.03;89.85
70833;BME280;71099;59.528;17.886;2024-02-21T00:11:29;100582.06;;;1.02;89.46
70833;BME280;71099;59.528;17.886;2024-02-21T00:13:54;100566.88;;;1.01;89.50
70833;BME280;71099;59.528;17.886;2024-02-21T00:16:20;100564.53;;;0.97;89.20
70833;BME280;71099;59.528;17.886;2024-02-21T00:18:45;100565.59;;;0.93;89.26
70833;BME280;71099;59.528;17.886;2024-02-21T00:21:11;100562.22;;;0.93;89.23
70833;BME280;71099;59.528;17.886;2024-02-21T00:23:43;100559.44;;;0.97;89.29
70833;BME280;71099;59.528;17.886;2024-02-21T00:26:11;100554.72;;;0.91;89.67
70833;BME280;71099;59.528;17.886;2024-02-21T00:28:37;100555.50;;;0.92;89.31
70833;BME280;71099;59.528;17.886;2024-02-21T00:31:02;100556.00;;;0.98;89.25
70833;BME280;71099;59.528;17.886;2024-02-21T00:33:27;100562.00;;;0.82;89.80
70833;BME280;71099;59.528;17.886;2024-02-21T00:35:53;100553.44;;;0.69;90.44
70833;BME280;71099;59.528;17.886;2024-02-21T00:38:18;100553.19;;;0.73;90.14
70833;BME280;71099;59.528;17.886;2024-02-21T00:40:44;100545.56;;;0.73;90.57
70833;BME280;71099;59.528;17.886;2024-02-21T00:43:09;100541.03;;;0.78;90.78
70833;BME280;71099;59.528;17.886;2024-02-21T00:45:34;100535.63;;;0.84;90.33
70833;BME280;71099;59.528;17.886;2024-02-21T00:48:03;100532.91;;;0.87;90.36
70833;BME280;71099;59.528;17.886;2024-02-21T00:50:29;100516.75;;;0.88;90.59
70833;BME280;71099;59.528;17.886;2024-02-21T00:52:55;100509.53;;;0.96;90.04
70833;BME280;71099;59.528;17.886;2024-02-21T00:55:20;100502.09;;;0.93;90.03
70833;BME280;71099;59.528;17.886;2024-02-21T00:57:46;100496.28;;;0.91;89.83
70833;BME280;71099;59.528;17.886;2024-02-21T01:00:11;100488.66;;;0.91;90.31
70833;BME280;71099;59.528;17.886;2024-02-21T01:02:37;100484.28;;;0.93;89.67
70833;BME280;71099;59.528;17.886;2024-02-21T01:05:03;100481.75;;;0.93;90.23
70833;BME280;71099;59.528;17.886;2024-02-21T01:07:28;100490.09;;;0.95;89.88
70833;BME280;71099;59.528;17.886;2024-02-21T01:09:53;100488.47;;;0.94;90.05
70833;BME280;71099;59.528;17.886;2024-02-21T01:12:19;100485.19;;;0.92;90.04
70833;BME280;71099;59.528;17.886;2024-02-21T01:14:44;100480.03;;;0.94;89.83
70833;BME280;71099;59.528;17.886;2024-02-21T01:17:11;100469.63;;;0.98;89.85
70833;BME280;71099;59.528;17.886;2024-02-21T01:19:37;100464.34;;;1.02;89.80
70833;BME280;71099;59.528;17.886;2024-02-21T01:22:02;100462.53;;;1.04;89.96
70833;BME280;71099;59.528;17.886;2024-02-21T01:24:28;100452.38;;;1.04;89.69
70833;BME280;71099;59.528;17.886;2024-02-21T01:26:53;100451.00;;;0.98;89.71
70833;BME280;71099;59.528;17.886;2024-02-21T01:29:19;100447.84;;;0.94;89.70
70833;BME280;71099;59.528;17.886;2024-02-21T01:31:44;100441.94;;;0.94;90.42
70833;BME280;71099;59.528;17.886;2024-02-21T01:34:09;100432.91;;;0.88;90.31
70833;BME280;71099;59.528;17.886;2024-02-21T01:36:35;100444.53;;;0.92;89.98
70833;BME280;71099;59.528;17.886;2024-02-21T01:39:00;100433.09;;;0.85;90.59
70833;BME280;71099;59.528;17.886;2024-02-21T01:41:26;100427.13;;;0.86;90.34
70833;BME280;71099;59.528;17.886;2024-02-21T01:43:51;100409.72;;;0.80;90.50
70833;BME280;71099;59.528;17.886;2024-02-21T01:46:17;100420.16;;;0.90;90.66
70833;BME280;71099;59.528;17.886;2024-02-21T01:48:43;100414.50;;;0.85;90.67
70833;BME280;71099;59.528;17.886;2024-02-21T01:51:11;100411.69;;;0.89;90.99
70833;BME280;71099;59.528;17.886;2024-02-21T01:53:40;100392.28;;;0.88;90.70
70833;BME280;71099;59.528;17.886;2024-02-21T01:56:08;100388.84;;;0.89;91.48
70833;BME280;71099;59.528;17.886;2024-02-21T01:58:35;100386.84;;;0.80;91.65
70833;BME280;71099;59.528;17.886;2024-02-21T02:01:05;100388.81;;;0.75;91.46
70833;BME280;71099;59.528;17.886;2024-02-21T02:03:31;100379.31;;;0.79;92.04
70833;BME280;71099;59.528;17.886;2024-02-21T02:05:56;100378.41;;;0.80;92.52
70833;BME280;71099;59.528;17.886;2024-02-21T02:08:21;100377.38;;;0.68;92.11
70833;BME280;71099;59.528;17.886;2024-02-21T02:10:48;100367.59;;;0.76;92.89
70833;BME280;71099;59.528;17.886;2024-02-21T02:13:13;100353.66;;;0.83;92.44
70833;BME280;71099;59.528;17.886;2024-02-21T02:15:43;100349.09;;;0.74;92.45
70833;BME280;71099;59.528;17.886;2024-02-21T02:18:09;100358.97;;;0.79;92.53
70833;BME280;71099;59.528;17.886;2024-02-21T02:20:35;100356.44;;;0.79;93.24
70833;BME280;71099;59.528;17.886;2024-02-21T02:23:10;100356.25;;;0.82;93.59
70833;BME280;71099;59.528;17.886;2024-02-21T02:25:36;100358.53;;;0.86;92.78
70833;BME280;71099;59.528;17.886;2024-02-21T02:28:03;100350.34;;;0.81;93.27
70833;BME280;71099;59.528;17.886;2024-02-21T02:30:35;100334.59;;;0.76;92.91
70833;BME280;71099;59.528;17.886;2024-02-21T02:33:05;100340.94;;;0.83;93.15
70833;BME280;71099;59.528;17.886;2024-02-21T02:35:31;100347.56;;;0.86;93.47
70833;BME280;71099;59.528;17.886;2024-02-21T02:37:56;100346.75;;;0.85;93.83
70833;BME280;71099;59.528;17.886;2024-02-21T02:40:22;100345.47;;;0.92;93.35
70833;BME280;71099;59.528;17.886;2024-02-21T02:42:48;100338.66;;;0.93;93.77
70833;BME280;71099;59.528;17.886;2024-02-21T02:45:15;100342.75;;;0.95;93.19
70833;BME280;71099;59.528;17.886;2024-02-21T02:47:40;100335.31;;;0.92;93.30
70833;BME280;71099;59.528;17.886;2024-02-21T02:50:07;100341.13;;;0.94;93.31
70833;BME280;71099;59.528;17.886;2024-02-21T02:52:33;100339.41;;;0.95;93.77
70833;BME280;71099;59.528;17.886;2024-02-21T02:54:58;100332.75;;;0.92;94.12
70833;BME280;71099;59.528;17.886;2024-02-21T02:57:24;100320.81;;;0.94;93.72
70833;BME280;71099;59.528;17.886;2024-02-21T02:59:50;100328.25;;;0.97;93.49
70833;BME280;71099;59.528;17.886;2024-02-21T03:02:17;100309.91;;;0.92;94.19
70833;BME280;71099;59.528;17.886;2024-02-21T03:04:43;100317.19;;;0.98;94.02
70833;BME280;71099;59.528;17.886;2024-02-21T03:07:08;100314.28;;;0.90;94.37
70833;BME280;71099;59.528;17.886;2024-02-21T03:09:34;100314.28;;;0.90;94.33
70833;BME280;71099;59.528;17.886;2024-02-21T03:11:59;100313.38;;;0.91;94.77
70833;BME280;71099;59.528;17.886;2024-02-21T03:14:30;100307.38;;;0.92;94.75
70833;BME280;71099;59.528;17.886;2024-02-21T03:16:57;100304.56;;;0.97;94.98
70833;BME280;71099;59.528;17.886;2024-02-21T03:19:23;100301.94;;;0.98;94.97
70833;BME280;71099;59.528;17.886;2024-02-21T03:21:49;100296.47;;;1.05;94.92
70833;BME280;71099;59.528;17.886;2024-02-21T03:24:16;100286.31;;;1.05;94.49
70833;BME280;71099;59.528;17.886;2024-02-21T03:26:41;100283.97;;;1.02;94.46
70833;BME280;71099;59.528;17.886;2024-02-21T03:29:06;100286.13;;;1.08;94.99
70833;BME280;71099;59.528;17.886;2024-02-21T03:31:32;100284.13;;;1.13;94.60
70833;BME280;71099;59.528;17.886;2024-02-21T03:33:58;100275.13;;;1.07;95.27
70833;BME280;71099;59.528;17.886;2024-02-21T03:36:23;100276.22;;;1.03;95.25
70833;BME280;71099;59.528;17.886;2024-02-21T03:38:48;100272.72;;;1.06;94.90
70833;BME280;71099;59.528;17.886;2024-02-21T03:41:14;100261.63;;;1.07;95.12
70833;BME280;71099;59.528;17.886;2024-02-21T03:43:39;100267.25;;;1.12;95.40
70833;BME280;71099;59.528;17.886;2024-02-21T03:46:05;100268.69;;;1.16;94.91
70833;BME280;71099;59.528;17.886;2024-02-21T03:48:31;100266.06;;;1.17;95.16
70833;BME280;71099;59.528;17.886;2024-02-21T03:50:57;100256.69;;;1.18;94.99
70833;BME280;71099;59.528;17.886;2024-02-21T03:53:23;100255.91;;;1.17;95.30
70833;BME280;71099;59.528;17.886;2024-02-21T03:55:48;100254.06;;;1.19;95.12
70833;BME280;71099;59.528;17.886;2024-02-21T03:58:13;100249.63;;;1.23;94.84
70833;BME280;71099;59.528;17.886;2024-02-21T04:00:39;100249.63;;;1.23;95.00
70833;BME280;71099;59.528;17.886;2024-02-21T04:03:05;100228.91;;;1.29;95.07
70833;BME280;71099;59.528;17.886;2024-02-21T04:05:31;100234.72;;;1.31;94.92
70833;BME280;71099;59.528;17.886;2024-02-21T04:07:57;100229.44;;;1.34;94.65
70833;BME280;71099;59.528;17.886;2024-02-21T04:10:22;100225.06;;;1.36;94.78
70833;BME280;71099;59.528;17.886;2024-02-21T04:12:48;100231.78;;;1.37;94.95
70833;BME280;71099;59.528;17.886;2024-02-21T04:15:16;100224.34;;;1.34;94.42
70833;BME280;71099;59.528;17.886;2024-02-21T04:17:41;100211.03;;;1.30;94.82
70833;BME280;71099;59.528;17.886;2024-02-21T04:20:14;100211.44;;;1.37;94.69
70833;BME280;71099;59.528;17.886;2024-02-21T04:22:43;100209.03;;;1.35;95.06
70833;BME280;71099;59.528;17.886;2024-02-21T04:25:09;100204.00;;;1.34;94.48
70833;BME280;71099;59.528;17.886;2024-02-21T04:27:34;100196.31;;;1.35;94.76
70833;BME280;71099;59.528;17.886;2024-02-21T04:30:00;100198.03;;;1.35;94.79
70833;BME280;71099;59.528;17.886;2024-02-21T04:32:25;100192.00;;;1.36;94.90
70833;BME280;71099;59.528;17.886;2024-02-21T04:34:52;100197.44;;;1.44;94.48
70833;BME280;71099;59.528;17.886;2024-02-21T04:37:18;100191.34;;;1.46;94.83
70833;BME280;71099;59.528;17.886;2024-02-21T04:39:44;100194.69;;;1.47;94.42
70833;BME280;71099;59.528;17.886;2024-02-21T04:42:09;100197.22;;;1.47;94.73
70833;BME280;71099;59.528;17.886;2024-02-21T04:44:34;100196.25;;;1.50;94.38
70833;BME280;71099;59.528;17.886;2024-02-21T04:47:00;100198.88;;;1.48;95.04
70833;BME280;71099;59.528;17.886;2024-02-21T04:49:26;100190.97;;;1.53;94.92
70833;BME280;71099;59.528;17.886;2024-02-21T04:51:51;100186.91;;;1.50;94.83
70833;BME280;71099;59.528;17.886;2024-02-21T04:54:17;100181.59;;;1.53;94.34
70833;BME280;71099;59.528;17.886;2024-02-21T04:56:42;100175.63;;;1.54;94.89
70833;BME280;71099;59.528;17.886;2024-02-21T04:59:08;100182.13;;;1.58;94.31
70833;BME280;71099;59.528;17.886;2024-02-21T05:01:33;100166.16;;;1.56;94.87
70833;BME280;71099;59.528;17.886;2024-02-21T05:03:58;100175.31;;;1.59;94.34
70833;BME280;71099;59.528;17.886;2024-02-21T05:06:24;100167.59;;;1.60;94.55
70833;BME280;71099;59.528;17.886;2024-02-21T05:08:49;100158.84;;;1.64;94.83
70833;BME280;71099;59.528;17.886;2024-02-21T05:11:14;100152.94;;;1.64;94.45
70833;BME280;71099;59.528;17.886;2024-02-21T05:13:40;100155.38;;;1.65;94.57
70833;BME280;71099;59.528;17.886;2024-02-21T05:16:06;100150.09;;;1.68;94.52
70833;BME280;71099;59.528;17.886;2024-02-21T05:18:32;100144.28;;;1.66;93.79
70833;BME280;71099;59.528;17.886;2024-02-21T05:20:58;100145.59;;;1.59;94.36
70833;BME280;71099;59.528;17.886;2024-02-21T05:23:24;100140.53;;;1.59;94.64
70833;BME280;71099;59.528;17.886;2024-02-21T05:25:49;100135.34;;;1.61;94.23
70833;BME280;71099;59.528;17.886;2024-02-21T05:28:15;100130.88;;;1.64;94.23
70833;BME280;71099;59.528;17.886;2024-02-21T05:30:40;100132.47;;;1.65;94.28
70833;BME280;71099;59.528;17.886;2024-02-21T05:33:08;100127.59;;;1.62;94.28
70833;BME280;71099;59.528;17.886;2024-02-21T05:35:34;100121.81;;;1.60;94.38
70833;BME280;71099;59.528;17.886;2024-02-21T05:37:59;100119.97;;;1.62;94.30
70833;BME280;71099;59.528;17.886;2024-02-21T05:40:25;100112.34;;;1.62;94.70
70833;BME280;71099;59.528;17.886;2024-02-21T05:42:51;100114.88;;;1.62;94.88
70833;BME280;71099;59.528;17.886;2024-02-21T05:45:17;100111.84;;;1.57;94.57
70833;BME280;71099;59.528;17.886;2024-02-21T05:47:43;100104.91;;;1.59;95.21
70833;BME280;71099;59.528;17.886;2024-02-21T05:50:09;100100.34;;;1.64;95.32
70833;BME280;71099;59.528;17.886;2024-02-21T05:52:34;100102.06;;;1.64;94.97
70833;BME280;71099;59.528;17.886;2024-02-21T05:55:00;100104.91;;;1.59;95.18
70833;BME280;71099;59.528;17.886;2024-02-21T05:57:25;100098.72;;;1.63;95.49
70833;BME280;71099;59.528;17.886;2024-02-21T05:59:51;100091.91;;;1.64;95.79
70833;BME280;71099;59.528;17.886;2024-02-21T06:02:16;100086.22;;;1.60;95.67
70833;BME280;71099;59.528;17.886;2024-02-21T06:04:41;100088.03;;;1.58;95.86
70833;BME280;71099;59.528;17.886;2024-02-21T06:07:08;100088.03;;;1.58;96.36
70833;BME280;71099;59.528;17.886;2024-02-21T06:09:34;100087.03;;;1.61;96.45
70833;BME280;71099;59.528;17.886;2024-02-21T06:11:59;100087.22;;;1.58;96.94
70833;BME280;71099;59.528;17.886;2024-02-21T06:14:25;100086.22;;;1.60;96.99
70833;BME280;71099;59.528;17.886;2024-02-21T06:16:50;100084.16;;;1.65;96.67
70833;BME280;71099;59.528;17.886;2024-02-21T06:19:15;100080.81;;;1.65;96.67
70833;BME280;71099;59.528;17.886;2024-02-21T06:21:41;100086.63;;;1.67;97.04
70833;BME280;71099;59.528;17.886;2024-02-21T06:24:06;100092.44;;;1.69;97.15
70833;BME280;71099;59.528;17.886;2024-02-21T06:26:32;100087.22;;;1.70;97.03
70833;BME280;71099;59.528;17.886;2024-02-21T06:28:57;100088.13;;;1.69;97.07
70833;BME280;71099;59.528;17.886;2024-02-21T06:31:25;100085.41;;;1.72;97.19
70833;BME280;71099;59.528;17.886;2024-02-21T06:33:50;100077.44;;;1.77;97.43
70833;BME280;71099;59.528;17.886;2024-02-21T06:36:19;100079.91;;;1.78;97.16
70833;BME280;71099;59.528;17.886;2024-02-21T06:38:44;100074.59;;;1.81;97.19
70833;BME280;71099;59.528;17.886;2024-02-21T06:41:17;100067.78;;;1.82;96.95
70833;BME280;71099;59.528;17.886;2024-02-21T06:43:44;100066.75;;;1.84;97.31
70833;BME280;71099;59.528;17.886;2024-02-21T06:46:10;100065.94;;;1.84;97.17
70833;BME280;71099;59.528;17.886;2024-02-21T06:48:35;100066.69;;;1.86;97.12
70833;BME280;71099;59.528;17.886;2024-02-21T06:51:01;100060.78;;;1.85;96.94
70833;BME280;71099;59.528;17.886;2024-02-21T06:53:26;100058.00;;;1.88;97.08
70833;BME280;71099;59.528;17.886;2024-02-21T06:55:52;100058.94;;;1.87;97.23
70833;BME280;71099;59.528;17.886;2024-02-21T06:58:17;100056.97;;;1.91;97.14
70833;BME280;71099;59.528;17.886;2024-02-21T07:00:43;100045.91;;;1.92;97.08
70833;BME280;71099;59.528;17.886;2024-02-21T07:03:08;100046.72;;;1.92;96.99
70833;BME280;71099;59.528;17.886;2024-02-21T07:05:34;100042.22;;;1.96;97.02
70833;BME280;71099;59.528;17.886;2024-02-21T07:07:59;100042.13;;;1.98;97.11
70833;BME280;71099;59.528;17.886;2024-02-21T07:10:25;100034.28;;;2.01;97.13
70833;BME280;71099;59.528;17.886;2024-02-21T07:12:50;100030.72;;;2.03;96.89
70833;BME280;71099;59.528;17.886;2024-02-21T07:15:17;100021.44;;;2.02;96.79
70833;BME280;71099;59.528;17.886;2024-02-21T07:17:43;100016.34;;;2.02;96.99
70833;BME280;71099;59.528;17.886;2024-02-21T07:20:09;100015.56;;;2.02;97.05
70833;BME280;71099;59.528;17.886;2024-02-21T07:22:34;100012.81;;;2.05;97.04
70833;BME280;71099;59.528;17.886;2024-02-21T07:24:59;100011.69;;;2.09;96.96
70833;BME280;71099;59.528;17.886;2024-02-21T07:27:25;100006.59;;;2.09;97.11
70833;BME280;71099;59.528;17.886;2024-02-21T07:29:53;100004.75;;;2.11;96.77
70833;BME280;71099;59.528;17.886;2024-02-21T07:32:19;100009.63;;;2.14;97.27
70833;BME280;71099;59.528;17.886;2024-02-21T07:34:44;100004.44;;;2.15;97.12
70833;BME280;71099;59.528;17.886;2024-02-21T07:37:10;100005.25;;;2.16;97.13
70833;BME280;71099;59.528;17.886;2024-02-21T07:39:36;99991.59;;;2.17;97.21
70833;BME280;71099;59.528;17.886;2024-02-21T07:42:05;100003.31;;;2.19;96.93
70833;BME280;71099;59.528;17.886;2024-02-21T07:44:32;100000.84;;;2.18;96.81
70833;BME280;71099;59.528;17.886;2024-02-21T07:46:57;100001.56;;;2.20;97.05
70833;BME280;71099;59.528;17.886;2024-02-21T07:49:23;99998.81;;;2.23;97.39
70833;BME280;71099;59.528;17.886;2024-02-21T07:51:49;99998.09;;;2.21;97.29
70833;BME280;71099;59.528;17.886;2024-02-21T07:54:14;99998.81;;;2.23;97.65
70833;BME280;71099;59.528;17.886;2024-02-21T07:56:39;100003.91;;;2.23;97.52
70833;BME280;71099;59.528;17.886;2024-02-21T07:59:05;100003.78;;;2.24;97.69
70833;BME280;71099;59.528;17.886;2024-02-21T08:01:30;100000.63;;;2.21;98.21
70833;BME280;71099;59.528;17.886;2024-02-21T08:03:56;99990.25;;;2.24;98.11
70833;BME280;71099;59.528;17.886;2024-02-21T08:06:24;100004.38;;;2.28;98.00
70833;BME280;71099;59.528;17.886;2024-02-21T08:08:50;99999.78;;;2.33;98.10
70833;BME280;71099;59.528;17.886;2024-02-21T08:11:15;100004.66;;;2.36;98.41
70833;BME280;71099;59.528;17.886;2024-02-21T08:13:41;100011.59;;;2.34;98.35
70833;BME280;71099;59.528;17.886;2024-02-21T08:16:06;100006.00;;;2.29;98.38
70833;BME280;71099;59.528;17.886;2024-02-21T08:18:31;100005.78;;;2.32;98.96
70833;BME280;71099;59.528;17.886;2024-02-21T08:20:59;100003.75;;;2.37;99.66
70833;BME280;71099;59.528;17.886;2024-02-21T08:23:24;100013.50;;;2.43;99.39
70833;BME280;71099;59.528;17.886;2024-02-21T08:25:50;100011.91;;;2.42;99.14
70833;BME280;71099;59.528;17.886;2024-02-21T08:28:15;100009.81;;;2.47;99.05
70833;BME280;71099;59.528;17.886;2024-02-21T08:30:41;100012.25;;;2.49;99.31
70833;BME280;71099;59.528;17.886;2024-02-21T08:33:12;100013.09;;;2.49;99.07
70833;BME280;71099;59.528;17.886;2024-02-21T08:35:38;100018.78;;;2.53;99.44
70833;BME280;71099;59.528;17.886;2024-02-21T08:38:03;100005.00;;;2.55;99.52
70833;BME280;71099;59.528;17.886;2024-02-21T08:40:28;100005.00;;;2.55;99.08
70833;BME280;71099;59.528;17.886;2024-02-21T08:42:54;100002.34;;;2.57;99.24
70833;BME280;71099;59.528;17.886;2024-02-21T08:45:19;100006.19;;;2.62;99.15
70833;BME280;71099;59.528;17.886;2024-02-21T08:47:45;100001.91;;;2.63;99.34
70833;BME280;71099;59.528;17.886;2024-02-21T08:50:11;100000.88;;;2.65;99.68
70833;BME280;71099;59.528;17.886;2024-02-21T08:52:37;99999.03;;;2.67;98.91
70833;BME280;71099;59.528;17.886;2024-02-21T08:55:02;100000.66;;;2.68;99.11
70833;BME280;71099;59.528;17.886;2024-02-21T08:57:28;99998.31;;;2.65;99.03
70833;BME280;71099;59.528;17.886;2024-02-21T08:59:54;99994.53;;;2.71;99.06
70833;BME280;71099;59.528;17.886;2024-02-21T09:02:19;99993.28;;;2.76;99.67
70833;BME280;71099;59.528;17.886;2024-02-21T09:04:45;99986.34;;;2.78;99.23
70833;BME280;71099;59.528;17.886;2024-02-21T09:07:11;99985.91;;;2.84;99.37
70833;BME280;71099;59.528;17.886;2024-02-21T09:09:37;99974.56;;;2.88;98.98
70833;BME280;71099;59.528;17.886;2024-02-21T09:12:06;99978.50;;;2.92;99.16
70833;BME280;71099;59.528;17.886;2024-02-21T09:14:32;99970.53;;;2.97;99.06
70833;BME280;71099;59.528;17.886;2024-02-21T09:16:58;99966.03;;;3.01;98.85
70833;BME280;71099;59.528;17.886;2024-02-21T09:19:23;99964.75;;;3.06;98.95
70833;BME280;71099;59.528;17.886;2024-02-21T09:21:49;99970.44;;;3.10;98.58
70833;BME280;71099;59.528;17.886;2024-02-21T09:24:14;99963.50;;;3.12;98.70
70833;BME280;71099;59.528;17.886;2024-02-21T09:26:40;99954.09;;;3.12;98.69
70833;BME280;71099;59.528;17.886;2024-02-21T09:29:05;99952.03;;;3.17;98.83
70833;BME280;71099;59.528;17.886;2024-02-21T09:31:31;99954.25;;;3.22;99.01
70833;BME280;71099;59.528;17.886;2024-02-21T09:33:56;99944.06;;;3.22;99.15
70833;BME280;71099;59.528;17.886;2024-02-21T09:36:21;99941.72;;;3.19;98.83
70833;BME280;71099;59.528;17.886;2024-02-21T09:38:47;99952.28;;;3.25;99.02
70833;BME280;71099;59.528;17.886;2024-02-21T09:41:16;99941.03;;;3.28;99.35
70833;BME280;71099;59.528;17.886;2024-02-21T09:43:43;99934.19;;;3.28;98.85
70833;BME280;71099;59.528;17.886;2024-02-21T09:46:17;99938.00;;;3.34;98.88
70833;BME280;71099;59.528;17.886;2024-02-21T09:51:14;99930.16;;;3.37;99.89
70833;BME280;71099;59.528;17.886;2024-02-21T09:53:40;99940.13;;;3.40;99.00
70833;BME280;71099;59.528;17.886;2024-02-21T09:56:10;99929.69;;;3.43;99.67
70833;BME280;71099;59.528;17.886;2024-02-21T09:58:36;99929.22;;;3.38;99.73
70833;BME280;71099;59.528;17.886;2024-02-21T10:01:03;99932.72;;;3.48;100.00
70833;BME280;71099;59.528;17.886;2024-02-21T10:03:32;99927.22;;;3.53;99.79
70833;BME280;71099;59.528;17.886;2024-02-21T10:05:58;99938.00;;;3.56;100.00
70833;BME280;71099;59.528;17.886;2024-02-21T10:08:26;99932.00;;;3.57;99.95
70833;BME280;71099;59.528;17.886;2024-02-21T10:10:51;99921.09;;;3.55;99.69
70833;BME280;71099;59.528;17.886;2024-02-21T10:13:28;99919.81;;;3.61;99.60
70833;BME280;71099;59.528;17.886;2024-02-21T10:16:06;99922.59;;;3.69;99.85
70833;BME280;71099;59.528;17.886;2024-02-21T10:18:33;99927.69;;;3.69;100.00
70833;BME280;71099;59.528;17.886;2024-02-21T10:21:08;99920.38;;;3.75;100.00
70833;BME280;71099;59.528;17.886;2024-02-21T10:24:05;99909.72;;;3.81;99.79
70833;BME280;71099;59.528;17.886;2024-02-21T10:26:30;99913.88;;;3.82;99.55
70833;BME280;71099;59.528;17.886;2024-02-21T10:28:56;99913.88;;;3.82;99.45
70833;BME280;71099;59.528;17.886;2024-02-21T10:31:26;99912.03;;;3.84;99.80
70833;BME280;71099;59.528;17.886;2024-02-21T10:33:59;99915.16;;;3.88;99.66
70833;BME280;71099;59.528;17.886;2024-02-21T10:36:28;99903.88;;;3.90;99.89
70833;BME280;71099;59.528;17.886;2024-02-21T10:38:54;99908.31;;;3.88;99.28
70833;BME280;71099;59.528;17.886;2024-02-21T10:41:20;99901.66;;;3.97;99.83
70833;BME280;71099;59.528;17.886;2024-02-21T10:43:53;99908.16;;;4.01;99.44
70833;BME280;71099;59.528;17.886;2024-02-21T10:46:20;99903.84;;;4.02;99.26
70833;BME280;71099;59.528;17.886;2024-02-21T10:48:48;99906.31;;;4.03;99.68
70833;BME280;71099;59.528;17.886;2024-02-21T10:51:23;99898.25;;;4.08;99.87
70833;BME280;71099;59.528;17.886;2024-02-21T10:56:31;99898.25;;;4.08;99.68
70833;BME280;71099;59.528;17.886;2024-02-21T10:59:01;99893.03;;;4.09;99.43
70833;BME280;71099;59.528;17.886;2024-02-21T11:01:28;99879.72;;;4.06;99.04
70833;BME280;71099;59.528;17.886;2024-02-21T11:03:56;99886.63;;;4.15;99.30
70833;BME280;71099;59.528;17.886;2024-02-21T11:06:22;99877.22;;;4.15;99.09
70833;BME280;71099;59.528;17.886;2024-02-21T11:09:02;99885.22;;;4.22;98.62
70833;BME280;71099;59.528;17.886;2024-02-21T11:11:28;99881.63;;;4.24;98.94
70833;BME280;71099;59.528;17.886;2024-02-21T11:14:04;99883.91;;;4.27;98.71
70833;BME280;71099;59.528;17.886;2024-02-21T11:16:35;99871.97;;;4.28;98.81
70833;BME280;71099;59.528;17.886;2024-02-21T11:21:37;99873.69;;;4.27;98.75
70833;BME280;71099;59.528;17.886;2024-02-21T11:24:03;99879.63;;;4.28;99.00
70833;BME280;71099;59.528;17.886;2024-02-21T11:26:30;99878.00;;;4.27;98.39
70833;BME280;71099;59.528;17.886;2024-02-21T11:29:05;99880.19;;;4.31;97.76
70833;BME280;71099;59.528;17.886;2024-02-21T11:31:44;99881.69;;;4.34;98.53
70833;BME280;71099;59.528;17.886;2024-02-21T11:34:17;99875.53;;;4.36;98.22
70833;BME280;71099;59.528;17.886;2024-02-21T11:36:47;99876.56;;;4.34;98.51
70833;BME280;71099;59.528;17.886;2024-02-21T11:39:26;99864.38;;;4.37;97.90
70833;BME280;71099;59.528;17.886;2024-02-21T11:42:05;99862.75;;;4.36;98.73
70833;BME280;71099;59.528;17.886;2024-02-21T11:44:39;99871.91;;;4.39;97.80
70833;BME280;71099;59.528;17.886;2024-02-21T11:47:07;99867.47;;;4.41;97.67
70833;BME280;71099;59.528;17.886;2024-02-21T11:49:39;99852.22;;;4.30;97.92
70833;BME280;71099;59.528;17.886;2024-02-21T11:52:07;99861.13;;;4.35;97.83
70833;BME280;71099;59.528;17.886;2024-02-21T11:54:33;99859.81;;;4.41;97.93
70833;BME280;71099;59.528;17.886;2024-02-21T11:56:59;99864.13;;;4.40;97.17
70833;BME280;71099;59.528;17.886;2024-02-21T11:59:26;99868.75;;;4.47;97.58
70833;BME280;71099;59.528;17.886;2024-02-21T12:01:52;99861.91;;;4.47;97.56
70833;BME280;71099;59.528;17.886;2024-02-21T12:04:21;99860.94;;;4.48;97.18
70833;BME280;71099;59.528;17.886;2024-02-21T12:06:49;99860.72;;;4.51;97.18
70833;BME280;71099;59.528;17.886;2024-02-21T12:09:15;99865.00;;;4.51;97.24
70833;BME280;71099;59.528;17.886;2024-02-21T12:11:41;99864.19;;;4.50;97.08
70833;BME280;71099;59.528;17.886;2024-02-21T12:14:07;99859.66;;;4.54;97.21
70833;BME280;71099;59.528;17.886;2024-02-21T12:16:34;99853.63;;;4.55;97.05
70833;BME280;71099;59.528;17.886;2024-02-21T12:19:02;99848.34;;;4.56;97.19
70833;BME280;71099;59.528;17.886;2024-02-21T12:21:33;99855.09;;;4.57;96.66
70833;BME280;71099;59.528;17.886;2024-02-21T12:24:14;99859.28;;;4.58;97.38
70833;BME280;71099;59.528;17.886;2024-02-21T12:26:40;99854.28;;;4.57;96.57
70833;BME280;71099;59.528;17.886;2024-02-21T12:29:06;99852.41;;;4.59;96.92
70833;BME280;71099;59.528;17.886;2024-02-21T12:31:35;99851.47;;;4.60;96.51
70833;BME280;71099;59.528;17.886;2024-02-21T12:34:01;99845.94;;;4.55;97.07
70833;BME280;71099;59.528;17.886;2024-02-21T12:36:26;99840.28;;;4.51;96.73
70833;BME280;71099;59.528;17.886;2024-02-21T12:38:52;99847.28;;;4.59;96.59
70833;BME280;71099;59.528;17.886;2024-02-21T12:41:17;99837.88;;;4.59;96.25
70833;BME280;71099;59.528;17.886;2024-02-21T12:43:43;99840.31;;;4.61;96.40
70833;BME280;71099;59.528;17.886;2024-02-21T12:46:08;99839.75;;;4.57;97.34
70833;BME280;71099;59.528;17.886;2024-02-21T12:48:33;99843.00;;;4.59;97.07
70833;BME280;71099;59.528;17.886;2024-02-21T12:50:59;99840.56;;;4.58;96.35
70833;BME280;71099;59.528;17.886;2024-02-21T12:53:25;99843.00;;;4.59;95.92
70833;BME280;71099;59.528;17.886;2024-02-21T12:55:51;99836.84;;;4.62;96.77
70833;BME280;71099;59.528;17.886;2024-02-21T12:58:16;99835.78;;;4.64;96.73